createdAt,value
2018-11-28T00:00:52.665Z,94.80
2018-11-28T00:03:20.861Z,94.90
2018-11-28T00:05:49.009Z,94.80
2018-11-28T00:08:17.172Z,94.90
2018-11-28T00:10:45.381Z,94.90
2018-11-28T00:13:13.528Z,94.90
2018-11-28T00:15:41.708Z,95.00
2018-11-28T00:18:09.892Z,95.00
2018-11-28T00:20:38.149Z,95.00
2018-11-28T00:23:06.325Z,94.60
2018-11-28T00:25:34.525Z,94.40
2018-11-28T00:28:02.669Z,94.40
2018-11-28T00:30:30.840Z,94.30
2018-11-28T00:32:59.046Z,94.40
2018-11-28T00:35:27.194Z,94.40
2018-11-28T00:37:55.364Z,94.60
2018-11-28T00:40:24.074Z,94.60
2018-11-28T00:42:52.251Z,94.60
2018-11-28T00:45:21.832Z,94.50
2018-11-28T00:47:50.021Z,94.30
2018-11-28T00:50:24.484Z,94.10
2018-11-28T00:52:52.866Z,94.10
2018-11-28T00:55:20.969Z,94.10
2018-11-28T00:57:49.148Z,94.20
2018-11-28T01:00:22.063Z,94.20
2018-11-28T01:02:50.577Z,94.20
2018-11-28T01:05:18.729Z,94.40
2018-11-28T01:07:48.783Z,94.30
2018-11-28T01:10:18.208Z,94.20
2018-11-28T01:12:46.581Z,94.20
2018-11-28T01:15:16.360Z,94.20
2018-11-28T01:17:44.588Z,94.30
2018-11-28T01:20:14.689Z,94.30
2018-11-28T01:22:42.894Z,94.80
2018-11-28T01:25:12.013Z,94.60
2018-11-28T01:27:40.320Z,94.50
2018-11-28T01:30:14.021Z,94.60
2018-11-28T01:32:42.281Z,94.50
2018-11-28T01:35:11.365Z,94.60
2018-11-28T01:37:39.885Z,94.60
2018-11-28T01:40:16.214Z,94.50
2018-11-28T01:42:44.445Z,94.50
2018-11-28T01:45:17.686Z,94.60
2018-11-28T01:47:45.985Z,94.70
2018-11-28T01:50:15.052Z,94.60
2018-11-28T01:52:43.286Z,94.60
2018-11-28T01:55:12.464Z,94.60
2018-11-28T01:57:40.632Z,94.50
2018-11-28T02:00:20.046Z,94.50
2018-11-28T02:02:49.745Z,94.60
2018-11-28T02:05:18.053Z,94.60
2018-11-28T02:07:46.261Z,94.50
2018-11-28T02:10:15.022Z,94.60
2018-11-28T02:12:43.209Z,94.60
2018-11-28T02:15:19.317Z,94.60
2018-11-28T02:17:47.496Z,94.60
2018-11-28T02:20:16.478Z,94.60
2018-11-28T02:22:44.977Z,94.70
2018-11-28T02:25:14.973Z,94.70
2018-11-28T02:27:43.268Z,94.70
2018-11-28T02:30:13.505Z,94.80
2018-11-28T02:32:41.685Z,94.70
2018-11-28T02:35:10.945Z,94.70
2018-11-28T02:37:39.277Z,94.70
2018-11-28T02:40:08.990Z,94.70
2018-11-28T02:42:37.148Z,94.80
2018-11-28T02:45:13.208Z,94.90
2018-11-28T02:47:41.375Z,95.00
2018-11-28T02:50:09.611Z,94.80
2018-11-28T02:52:37.745Z,94.70
2018-11-28T02:55:07.901Z,94.80
2018-11-28T02:57:36.118Z,95.10
2018-11-28T03:00:08.992Z,94.70
2018-11-28T03:02:37.173Z,94.70
2018-11-28T03:05:06.841Z,94.80
2018-11-28T03:07:35.081Z,94.80
2018-11-28T03:10:03.249Z,94.80
2018-11-28T03:12:31.406Z,94.80
2018-11-28T03:14:59.600Z,94.80
2018-11-28T03:17:27.752Z,94.80
2018-11-28T03:19:55.961Z,94.70
2018-11-28T03:22:24.125Z,94.60
2018-11-28T03:24:52.368Z,94.60
2018-11-28T03:27:20.549Z,94.60
2018-11-28T03:29:48.752Z,94.60
2018-11-28T03:32:16.889Z,94.60
2018-11-28T03:34:45.611Z,94.50
2018-11-28T03:37:13.289Z,94.50
2018-11-28T03:39:41.516Z,94.50
2018-11-28T03:42:09.690Z,94.50
2018-11-28T03:44:37.892Z,94.50
2018-11-28T03:47:06.057Z,94.50
2018-11-28T03:49:34.210Z,94.70
2018-11-28T03:52:02.448Z,94.50
2018-11-28T03:54:30.561Z,94.30
2018-11-28T03:56:58.730Z,94.30
2018-11-28T03:59:26.968Z,94.20
2018-11-28T04:01:55.082Z,94.10
2018-11-28T04:04:23.257Z,94.00
2018-11-28T04:06:51.437Z,94.10
2018-11-28T04:09:19.593Z,94.10
2018-11-28T04:11:47.773Z,93.90
2018-11-28T04:14:16.536Z,93.80
2018-11-28T04:16:44.733Z,93.90
2018-11-28T04:19:12.906Z,93.80
2018-11-28T04:21:41.101Z,93.70
2018-11-28T04:24:09.249Z,93.60
2018-11-28T04:26:37.429Z,93.80
2018-11-28T04:29:06.198Z,93.60
2018-11-28T04:31:34.384Z,93.50
2018-11-28T04:34:02.493Z,93.30
2018-11-28T04:36:30.689Z,93.40
2018-11-28T04:38:58.904Z,93.50
2018-11-28T04:41:27.077Z,93.60
2018-11-28T04:43:55.292Z,93.70
2018-11-28T04:46:23.492Z,93.70
2018-11-28T04:48:51.588Z,93.60
2018-11-28T04:51:19.802Z,93.50
2018-11-28T04:53:47.988Z,93.50
2018-11-28T04:56:16.185Z,93.50
2018-11-28T04:58:44.312Z,93.30
2018-11-28T05:01:12.465Z,93.50
2018-11-28T05:03:40.705Z,93.90
2018-11-28T05:06:08.833Z,93.60
2018-11-28T05:08:36.990Z,93.70
2018-11-28T05:11:05.321Z,93.70
2018-11-28T05:13:33.561Z,93.80
2018-11-28T05:16:01.806Z,93.80
2018-11-28T05:18:29.989Z,93.80
2018-11-28T05:20:58.184Z,93.70
2018-11-28T05:23:26.333Z,93.80
2018-11-28T05:25:54.749Z,93.70
2018-11-28T05:28:22.901Z,93.70
2018-11-28T05:30:51.057Z,93.60
2018-11-28T05:33:19.240Z,93.60
2018-11-28T05:35:47.429Z,93.70
2018-11-28T05:38:16.149Z,93.70
2018-11-28T05:40:44.941Z,93.70
2018-11-28T05:43:13.186Z,93.80
2018-11-28T05:45:41.324Z,93.90
2018-11-28T05:48:09.501Z,94.00
2018-11-28T05:50:37.716Z,93.90
2018-11-28T05:53:05.844Z,93.90
2018-11-28T05:55:34.021Z,94.00
2018-11-28T05:58:02.787Z,94.00
2018-11-28T06:00:37.121Z,93.90
2018-11-28T06:03:06.921Z,93.80
2018-11-28T06:05:35.145Z,93.90
2018-11-28T06:08:03.284Z,94.00
2018-11-28T06:10:31.476Z,93.70
2018-11-28T06:12:59.629Z,93.80
2018-11-28T06:15:27.820Z,94.00
2018-11-28T06:17:55.997Z,93.60
2018-11-28T06:20:24.152Z,93.30
2018-11-28T06:22:52.341Z,93.40
2018-11-28T06:25:20.483Z,93.30
2018-11-28T06:27:48.675Z,93.20
2018-11-28T06:30:18.647Z,93.10
2018-11-28T06:32:51.349Z,93.10
2018-11-28T06:35:15.061Z,93.00
2018-11-28T06:37:43.473Z,93.10
2018-11-28T06:40:13.727Z,93.00
2018-11-28T06:42:42.178Z,92.90
2018-11-28T06:45:11.880Z,92.80
2018-11-28T06:47:40.134Z,92.60
2018-11-28T06:50:10.789Z,92.70
2018-11-28T06:52:39.007Z,92.90
2018-11-28T06:55:10.229Z,92.80
2018-11-28T06:57:38.445Z,92.70
2018-11-28T07:00:26.274Z,92.70
2018-11-28T07:02:54.440Z,93.00
2018-11-28T07:05:23.177Z,92.80
2018-11-28T07:07:51.995Z,92.90
2018-11-28T07:10:21.160Z,92.90
2018-11-28T07:12:49.414Z,92.80
2018-11-28T07:15:18.868Z,92.70
2018-11-28T07:17:47.057Z,92.60
2018-11-28T07:20:15.905Z,92.50
2018-11-28T07:22:44.141Z,92.50
2018-11-28T07:25:14.197Z,92.60
2018-11-28T07:27:45.105Z,92.70
2018-11-28T07:30:15.598Z,92.60
2018-11-28T07:32:43.788Z,92.10
2018-11-28T07:35:12.520Z,92.30
2018-11-28T07:37:40.770Z,92.30
2018-11-28T07:40:23.958Z,92.30
2018-11-28T07:43:13.208Z,92.10
2018-11-28T07:45:44.633Z,92.20
2018-11-28T07:48:12.877Z,92.10
2018-11-28T07:50:41.044Z,92.00
2018-11-28T07:53:09.201Z,92.20
2018-11-28T07:55:37.400Z,91.90
2018-11-28T07:58:06.016Z,91.90
2018-11-28T08:00:34.806Z,92.30
2018-11-28T08:03:03.041Z,91.90
2018-11-28T08:05:31.193Z,91.70
2018-11-28T08:07:59.381Z,91.90
2018-11-28T08:10:31.232Z,91.40
2018-11-28T08:12:59.401Z,91.40
2018-11-28T08:15:27.579Z,91.30
2018-11-28T08:17:55.773Z,91.20
2018-11-28T08:20:23.920Z,91.00
2018-11-28T08:22:52.097Z,90.80
2018-11-28T08:25:20.290Z,90.70
2018-11-28T08:27:49.423Z,90.50
2018-11-28T08:30:19.866Z,90.50
2018-11-28T08:32:47.877Z,90.50
2018-11-28T08:35:16.045Z,90.00
2018-11-28T08:37:44.236Z,89.40
2018-11-28T08:40:13.608Z,89.90
2018-11-28T08:42:41.820Z,89.30
2018-11-28T08:45:14.541Z,89.20
2018-11-28T08:47:43.006Z,89.40
2018-11-28T08:50:27.832Z,89.30
2018-11-28T08:52:55.981Z,89.10
2018-11-28T08:55:24.169Z,88.20
2018-11-28T08:57:52.416Z,87.80
2018-11-28T09:00:21.598Z,87.20
2018-11-28T09:02:50.885Z,87.80
2018-11-28T09:05:19.122Z,87.10
2018-11-28T09:07:47.274Z,86.30
2018-11-28T09:10:16.329Z,86.40
2018-11-28T09:12:45.150Z,85.40
2018-11-28T09:15:16.565Z,84.60
2018-11-28T09:17:44.800Z,84.20
2018-11-28T09:20:13.749Z,84.10
2018-11-28T09:22:41.949Z,85.40
2018-11-28T09:25:11.530Z,84.90
2018-11-28T09:27:39.725Z,85.50
2018-11-28T09:30:22.875Z,85.30
2018-11-28T09:32:51.353Z,86.00
2018-11-28T09:35:19.869Z,86.70
2018-11-28T09:37:48.145Z,86.50
2018-11-28T09:40:26.057Z,87.40
2018-11-28T09:42:55.469Z,86.60
2018-11-28T09:45:23.665Z,86.40
2018-11-28T09:47:51.843Z,86.80
2018-11-28T09:50:21.017Z,86.50
2018-11-28T09:52:49.332Z,87.10
2018-11-28T09:55:19.398Z,86.90
2018-11-28T09:57:47.805Z,86.30
2018-11-28T10:00:24.652Z,86.80
2018-11-28T10:02:54.781Z,86.50
2018-11-28T10:05:24.985Z,86.80
2018-11-28T10:07:53.205Z,86.80
2018-11-28T10:10:21.392Z,87.30
2018-11-28T10:12:49.545Z,87.60
2018-11-28T10:15:19.560Z,87.50
2018-11-28T10:17:47.873Z,87.40
2018-11-28T10:20:16.589Z,86.30
2018-11-28T10:22:45.064Z,86.10
2018-11-28T10:25:14.389Z,86.10
2018-11-28T10:27:43.362Z,86.50
2018-11-28T10:30:14.317Z,86.00
2018-11-28T10:32:42.533Z,86.40
2018-11-28T10:35:10.686Z,86.50
2018-11-28T10:37:38.893Z,86.40
2018-11-28T10:40:23.476Z,86.70
2018-11-28T10:42:52.817Z,86.90
2018-11-28T10:45:22.000Z,88.10
2018-11-28T10:47:50.185Z,87.90
2018-11-28T10:50:18.317Z,87.30
2018-11-28T10:52:46.541Z,87.20
2018-11-28T10:55:18.687Z,88.00
2018-11-28T10:57:46.900Z,89.40
2018-11-28T11:00:26.590Z,88.50
2018-11-28T11:03:00.261Z,88.50
2018-11-28T11:05:34.041Z,88.30
2018-11-28T11:08:07.795Z,87.80
2018-11-28T11:10:41.485Z,87.30
2018-11-28T11:13:15.045Z,87.30
2018-11-28T11:15:43.228Z,87.50
2018-11-28T11:18:12.057Z,87.80
2018-11-28T11:20:40.270Z,88.00
2018-11-28T11:23:08.888Z,87.30
2018-11-28T11:25:37.046Z,85.40
2018-11-28T11:28:05.577Z,86.10
2018-11-28T11:30:33.834Z,84.60
2018-11-28T11:33:01.954Z,84.20
2018-11-28T11:35:30.133Z,83.20
2018-11-28T11:37:58.324Z,82.20
2018-11-28T11:40:26.500Z,82.00
2018-11-28T11:42:54.649Z,82.00
2018-11-28T11:45:22.858Z,82.00
2018-11-28T11:47:51.001Z,80.50
2018-11-28T11:50:19.561Z,80.10
2018-11-28T11:52:47.802Z,79.20
2018-11-28T11:55:19.573Z,79.40
2018-11-28T11:57:48.381Z,79.10
2018-11-28T12:00:26.792Z,79.30
2018-11-28T12:03:01.887Z,81.10
2018-11-28T12:05:30.027Z,81.10
2018-11-28T12:07:58.194Z,82.40
2018-11-28T12:10:26.398Z,82.70
2018-11-28T12:12:54.547Z,83.20
2018-11-28T12:15:22.721Z,84.00
2018-11-28T12:17:50.909Z,84.50
2018-11-28T12:20:32.113Z,83.30
2018-11-28T12:23:00.261Z,83.50
2018-11-28T12:25:28.428Z,84.10
2018-11-28T12:27:56.588Z,83.40
2018-11-28T12:30:24.789Z,84.50
2018-11-28T12:32:53.037Z,85.10
2018-11-28T12:35:21.209Z,85.10
2018-11-28T12:37:52.744Z,85.60
2018-11-28T12:40:20.937Z,85.00
2018-11-28T12:42:50.630Z,84.10
2018-11-28T12:45:19.704Z,84.40
2018-11-28T12:47:48.380Z,84.60
2018-11-28T12:50:22.733Z,85.20
2018-11-28T12:52:51.589Z,85.20
2018-11-28T12:55:20.306Z,84.70
2018-11-28T13:05:00.025Z,84.20
2018-11-28T13:07:28.080Z,85.20
2018-11-28T13:09:56.252Z,85.00
2018-11-28T13:12:24.503Z,85.20
2018-11-28T13:14:52.701Z,85.70
2018-11-28T13:17:20.873Z,86.20
2018-11-28T13:19:49.127Z,86.00
2018-11-28T13:22:17.321Z,85.70
2018-11-28T13:24:45.524Z,85.80
2018-11-28T13:27:13.688Z,86.40
2018-11-28T13:29:41.844Z,86.30
2018-11-28T13:32:10.078Z,86.90
2018-11-28T13:34:38.337Z,86.90
2018-11-28T13:37:06.860Z,87.00
2018-11-28T13:39:35.068Z,87.20
2018-11-28T13:42:03.262Z,87.00
2018-11-28T13:44:31.392Z,87.10
2018-11-28T13:46:59.570Z,86.70
2018-11-28T13:49:27.760Z,87.60
2018-11-28T13:51:55.914Z,87.50
2018-11-28T13:54:24.084Z,88.00
2018-11-28T13:57:03.720Z,87.40
2018-11-28T13:59:20.590Z,87.80
2018-11-28T14:01:48.709Z,87.60
2018-11-28T14:04:16.892Z,87.90
2018-11-28T14:06:45.119Z,87.90
2018-11-28T14:09:13.328Z,88.40
2018-11-28T14:11:41.549Z,88.30
2018-11-28T14:14:09.681Z,87.90
2018-11-28T14:16:37.853Z,88.30
2018-11-28T14:19:06.077Z,88.80
2018-11-28T14:21:34.205Z,89.00
2018-11-28T14:24:02.373Z,89.00
2018-11-28T14:26:30.577Z,89.30
2018-11-28T14:28:58.717Z,89.70
2018-11-28T14:31:26.893Z,89.50
2018-11-28T14:33:55.081Z,89.60
2018-11-28T14:36:23.237Z,90.00
2018-11-28T14:38:51.413Z,90.10
2018-11-28T14:41:20.082Z,90.10
2018-11-28T14:46:28.352Z,89.70
2018-11-28T14:48:56.508Z,90.00
2018-11-28T14:51:24.676Z,89.90
2018-11-28T14:53:52.879Z,88.80
2018-11-28T14:56:21.025Z,88.70
2018-11-28T14:58:49.202Z,88.70
2018-11-28T15:04:09.262Z,89.30
2018-11-28T15:06:46.578Z,88.90
2018-11-28T15:09:20.308Z,89.40
2018-11-28T15:11:48.378Z,89.80
2018-11-28T15:14:16.621Z,90.00
2018-11-28T15:16:44.981Z,90.10
2018-11-28T15:19:13.177Z,90.10
2018-11-28T15:21:41.365Z,90.00
2018-11-28T15:24:09.602Z,90.00
2018-11-28T15:26:37.809Z,90.10
2018-11-28T15:29:06.685Z,90.10
2018-11-28T15:31:35.011Z,89.70
2018-11-28T15:34:03.153Z,90.10
2018-11-28T15:36:31.334Z,90.60
2018-11-28T15:38:59.554Z,90.40
2018-11-28T15:41:27.851Z,90.40
2018-11-28T15:43:56.048Z,90.50
2018-11-28T15:47:53.625Z,90.50
2018-11-28T15:50:21.793Z,90.60
2018-11-28T15:52:49.961Z,90.70
2018-11-28T15:55:18.184Z,90.70
2018-11-28T15:57:46.308Z,90.90
2018-11-28T16:00:19.520Z,90.90
2018-11-28T16:02:47.677Z,91.00
2018-11-28T16:05:15.861Z,91.10
2018-11-28T16:07:44.057Z,91.10
2018-11-28T16:10:18.698Z,91.00
2018-11-28T16:12:47.564Z,91.10
2018-11-28T16:15:25.141Z,91.20
2018-11-28T16:17:53.373Z,91.20
2018-11-28T16:20:21.629Z,91.20
2018-11-28T16:22:50.049Z,91.30
2018-11-28T16:25:18.300Z,91.00
2018-11-28T16:27:46.616Z,91.10
2018-11-28T16:30:15.772Z,91.20
2018-11-28T16:32:45.842Z,91.30
2018-11-28T16:35:15.307Z,91.30
2018-11-28T16:37:43.557Z,91.30
2018-11-28T16:40:13.113Z,91.40
2018-11-28T16:42:41.285Z,91.40
2018-11-28T16:45:12.832Z,91.30
2018-11-28T16:47:41.162Z,91.40
2018-11-28T16:50:10.248Z,91.50
2018-11-28T16:52:38.533Z,91.60
2018-11-28T16:55:08.156Z,91.60
2018-11-28T16:57:36.373Z,91.60
2018-11-28T17:00:15.342Z,91.60
2018-11-28T17:02:43.521Z,91.60
2018-11-28T17:05:14.996Z,91.60
2018-11-28T17:07:43.420Z,91.60
2018-11-28T17:10:13.718Z,91.50
2018-11-28T17:12:42.093Z,91.60
2018-11-28T17:15:12.752Z,91.60
2018-11-28T17:17:41.176Z,91.60
2018-11-28T17:20:12.761Z,91.60
2018-11-28T17:22:41.725Z,91.50
2018-11-28T17:25:13.547Z,91.50
2018-11-28T17:27:41.792Z,91.80
2018-11-28T17:30:12.564Z,91.90
2018-11-28T17:32:40.733Z,92.30
2018-11-28T17:35:09.969Z,91.90
2018-11-28T17:37:38.232Z,91.90
2018-11-28T17:40:09.225Z,91.90
2018-11-28T17:42:37.445Z,91.80
2018-11-28T17:45:08.617Z,91.80
2018-11-28T17:47:36.889Z,91.80
2018-11-28T17:50:09.381Z,92.10
2018-11-28T17:52:37.561Z,91.90
2018-11-28T17:55:08.477Z,92.00
2018-11-28T17:57:36.698Z,92.10
2018-11-28T18:00:07.892Z,92.10
2018-11-28T18:02:36.114Z,92.00
2018-11-28T18:05:04.733Z,91.90
2018-11-28T18:07:33.142Z,91.80
2018-11-28T18:10:01.357Z,91.70
2018-11-28T18:12:29.522Z,91.80
2018-11-28T18:14:57.710Z,91.70
2018-11-28T18:17:25.861Z,91.80
2018-11-28T18:19:54.033Z,91.80
2018-11-28T18:22:22.249Z,91.80
2018-11-28T18:24:50.545Z,91.80
2018-11-28T18:27:18.756Z,91.70
2018-11-28T18:29:47.686Z,91.70
2018-11-28T18:32:15.216Z,91.60
2018-11-28T18:34:43.378Z,91.70
2018-11-28T18:37:11.609Z,91.80
2018-11-28T18:39:39.843Z,91.80
2018-11-28T18:42:08.114Z,91.80
2018-11-28T18:44:36.316Z,91.80
2018-11-28T18:47:04.850Z,91.70
2018-11-28T18:49:33.139Z,91.70
2018-11-28T18:52:01.371Z,91.60
2018-11-28T18:54:29.629Z,91.70
2018-11-28T18:56:57.856Z,91.70
2018-11-28T18:59:26.073Z,91.60
2018-11-28T19:01:54.334Z,91.50
2018-11-28T19:04:22.477Z,91.40
2018-11-28T19:06:50.692Z,91.30
2018-11-28T19:09:24.436Z,91.30
2018-11-28T19:11:52.770Z,91.10
2018-11-28T19:14:21.048Z,91.20
2018-11-28T19:16:49.337Z,91.10
2018-11-28T19:19:17.625Z,91.00
2018-11-28T19:21:45.890Z,90.80
2018-11-28T19:24:14.143Z,90.80
2018-11-28T19:26:42.330Z,90.60
2018-11-28T19:29:10.608Z,90.60
2018-11-28T19:31:38.729Z,90.80
2018-11-28T19:34:06.929Z,90.90
2018-11-28T19:36:35.138Z,90.90
2018-11-28T19:39:03.626Z,91.10
2018-11-28T19:41:31.881Z,90.90
2018-11-28T19:44:00.116Z,90.90
2018-11-28T19:46:28.293Z,91.00
2018-11-28T19:48:57.528Z,90.80
2018-11-28T19:51:25.773Z,91.10
2018-11-28T19:53:53.929Z,90.90
2018-11-28T19:56:22.138Z,91.00
2018-11-28T19:58:50.281Z,90.90
2018-11-28T20:01:18.470Z,91.00
2018-11-28T20:03:46.673Z,91.20
2018-11-28T20:06:14.917Z,91.10
2018-11-28T20:08:43.105Z,91.10
2018-11-28T20:11:11.635Z,91.10
2018-11-28T20:13:39.837Z,91.10
2018-11-28T20:16:08.047Z,91.10
2018-11-28T20:18:36.301Z,91.30
2018-11-28T20:21:04.538Z,91.20
2018-11-28T20:23:32.795Z,91.30
2018-11-28T20:26:01.081Z,91.20
2018-11-28T20:28:29.281Z,91.20
2018-11-28T20:30:57.450Z,91.30
2018-11-28T20:33:25.687Z,91.40
2018-11-28T20:35:53.902Z,91.30
2018-11-28T20:38:30.041Z,91.20
2018-11-28T20:40:58.242Z,91.10
2018-11-28T20:43:26.425Z,91.20
2018-11-28T20:45:54.652Z,91.00
2018-11-28T20:48:22.854Z,91.00
2018-11-28T20:50:51.860Z,90.90
2018-11-28T20:53:20.957Z,91.00
2018-11-28T20:55:49.131Z,91.00
2018-11-28T20:58:17.328Z,90.90
2018-11-28T21:00:45.497Z,90.90
2018-11-28T21:03:13.640Z,91.00
2018-11-28T21:05:41.816Z,91.00
2018-11-28T21:08:10.276Z,91.00
2018-11-28T21:10:39.281Z,91.10
2018-11-28T21:13:11.662Z,91.00
2018-11-28T21:15:40.504Z,90.90
2018-11-28T21:18:09.063Z,91.10
2018-11-28T21:20:38.217Z,90.90
2018-11-28T21:23:10.106Z,91.00
2018-11-28T21:25:38.938Z,91.00
2018-11-28T21:28:07.205Z,91.10
2018-11-28T21:30:35.433Z,91.10
2018-11-28T21:33:03.663Z,91.10
2018-11-28T21:35:33.056Z,90.90
2018-11-28T21:38:01.301Z,91.20
2018-11-28T21:40:29.480Z,91.20
2018-11-28T21:42:57.745Z,91.20
2018-11-28T21:45:26.180Z,90.90
2018-11-28T21:47:54.454Z,90.90
2018-11-28T21:50:22.666Z,91.00
2018-11-28T21:52:50.833Z,90.80
2018-11-28T21:55:21.145Z,90.90
2018-11-28T21:57:49.324Z,91.20
2018-11-28T22:00:19.444Z,91.20
2018-11-28T22:02:47.675Z,91.30
2018-11-28T22:05:16.382Z,91.20
2018-11-28T22:07:44.597Z,91.30
2018-11-28T22:10:20.730Z,91.30
2018-11-28T22:12:48.936Z,91.30
2018-11-28T22:15:24.413Z,91.20
2018-11-28T22:17:54.631Z,91.30
2018-11-28T22:20:23.444Z,91.20
2018-11-28T22:22:51.670Z,91.20
2018-11-28T22:25:23.586Z,91.20
2018-11-28T22:27:51.850Z,91.30
2018-11-28T22:30:22.894Z,91.70
2018-11-28T22:32:51.110Z,91.40
2018-11-28T22:35:19.271Z,91.60
2018-11-28T22:37:47.461Z,91.70
2018-11-28T22:40:19.571Z,91.70
2018-11-28T22:42:47.800Z,91.70
2018-11-28T22:45:17.956Z,91.80
2018-11-28T22:47:46.191Z,91.90
2018-11-28T22:50:14.496Z,91.90
2018-11-28T22:52:42.725Z,91.90
2018-11-28T22:55:12.904Z,91.70
2018-11-28T22:57:41.156Z,91.70
2018-11-28T23:00:13.937Z,91.70
2018-11-28T23:02:48.397Z,91.60
2018-11-28T23:05:16.601Z,91.60
2018-11-28T23:07:44.841Z,91.60
2018-11-28T23:10:13.070Z,91.30
2018-11-28T23:12:41.218Z,91.30
2018-11-28T23:15:09.396Z,91.40
2018-11-28T23:17:37.594Z,91.40
2018-11-28T23:20:07.033Z,91.30
2018-11-28T23:22:35.257Z,91.30
2018-11-28T23:25:03.477Z,91.40
2018-11-28T23:27:31.700Z,91.50
2018-11-28T23:29:59.877Z,91.50
2018-11-28T23:32:28.061Z,91.50
2018-11-28T23:34:56.247Z,91.30
2018-11-28T23:37:24.385Z,91.40
2018-11-28T23:39:52.598Z,91.60
2018-11-28T23:42:20.733Z,91.60
2018-11-28T23:44:48.909Z,91.60
2018-11-28T23:47:17.105Z,91.60
2018-11-28T23:49:45.257Z,91.70
2018-11-28T23:52:13.429Z,91.90
2018-11-28T23:54:41.624Z,92.00
2018-11-28T23:57:09.782Z,91.90
2018-11-28T23:59:37.956Z,92.00
